sensor_id;sensor_type;location;lat;lon;timestamp;P1;durP1;ratioP1;P2;durP2;ratioP2
4986;SDS011;12674;51.500;7.552;2023-12-20T00:01:11;24.10;;;17.87;;
4986;SDS011;12674;51.500;7.552;2023-12-20T00:03:17;28.70;;;18.03;;
4986;SDS011;12674;51.500;7.552;2023-12-20T00:05:19;25.93;;;17.53;;
4986;SDS011;12674;51.500;7.552;2023-12-20T00:07:22;26.37;;;17.70;;
4986;SDS011;12674;51.500;7.552;2023-12-20T00:09:25;23.53;;;16.63;;
4986;SDS011;12674;51.500;7.552;2023-12-20T00:11:28;19.40;;;15.60;;
4986;SDS011;12674;51.500;7.552;2023-12-20T00:13:33;23.53;;;16.23;;
4986;SDS011;12674;51.500;7.552;2023-12-20T00:15:36;23.20;;;16.50;;
4986;SDS011;12674;51.500;7.552;2023-12-20T00:17:39;22.77;;;15.13;;
4986;SDS011;12674;51.500;7.552;2023-12-20T00:19:43;20.67;;;13.80;;
4986;SDS011;12674;51.500;7.552;2023-12-20T00:21:46;21.43;;;14.90;;
4986;SDS011;12674;51.500;7.552;2023-12-20T00:23:49;24.70;;;15.57;;
4986;SDS011;12674;51.500;7.552;2023-12-20T00:25:52;20.60;;;15.20;;
4986;SDS011;12674;51.500;7.552;2023-12-20T00:27:55;19.93;;;14.13;;
4986;SDS011;12674;51.500;7.552;2023-12-20T00:29:59;24.60;;;15.23;;
4986;SDS011;12674;51.500;7.552;2023-12-20T00:32:02;21.57;;;15.20;;
4986;SDS011;12674;51.500;7.552;2023-12-20T00:34:06;32.07;;;18.40;;
4986;SDS011;12674;51.500;7.552;2023-12-20T00:36:09;34.80;;;19.60;;
4986;SDS011;12674;51.500;7.552;2023-12-20T00:38:12;31.90;;;18.13;;
4986;SDS011;12674;51.500;7.552;2023-12-20T00:40:16;22.93;;;16.67;;
4986;SDS011;12674;51.500;7.552;2023-12-20T00:42:19;21.33;;;15.73;;
4986;SDS011;12674;51.500;7.552;2023-12-20T00:44:22;28.93;;;16.43;;
4986;SDS011;12674;51.500;7.552;2023-12-20T00:46:26;25.00;;;17.40;;
4986;SDS011;12674;51.500;7.552;2023-12-20T00:48:29;25.03;;;16.27;;
4986;SDS011;12674;51.500;7.552;2023-12-20T00:50:32;21.27;;;14.63;;
4986;SDS011;12674;51.500;7.552;2023-12-20T00:52:36;22.20;;;15.53;;
4986;SDS011;12674;51.500;7.552;2023-12-20T00:54:39;21.20;;;14.73;;
4986;SDS011;12674;51.500;7.552;2023-12-20T00:56:42;25.50;;;14.00;;
4986;SDS011;12674;51.500;7.552;2023-12-20T00:58:45;24.10;;;13.70;;
4986;SDS011;12674;51.500;7.552;2023-12-20T01:00:47;20.13;;;13.00;;
4986;SDS011;12674;51.500;7.552;2023-12-20T01:02:51;21.60;;;11.90;;
4986;SDS011;12674;51.500;7.552;2023-12-20T01:04:54;16.57;;;10.00;;
4986;SDS011;12674;51.500;7.552;2023-12-20T01:06:56;12.57;;;9.03;;
4986;SDS011;12674;51.500;7.552;2023-12-20T01:08:59;15.50;;;9.40;;
4986;SDS011;12674;51.500;7.552;2023-12-20T01:11:03;16.77;;;8.57;;
4986;SDS011;12674;51.500;7.552;2023-12-20T01:13:07;11.50;;;7.53;;
4986;SDS011;12674;51.500;7.552;2023-12-20T01:15:10;10.23;;;7.40;;
4986;SDS011;12674;51.500;7.552;2023-12-20T01:17:13;13.73;;;7.10;;
4986;SDS011;12674;51.500;7.552;2023-12-20T01:19:18;13.13;;;7.53;;
4986;SDS011;12674;51.500;7.552;2023-12-20T01:21:20;16.63;;;7.27;;
4986;SDS011;12674;51.500;7.552;2023-12-20T01:23:23;18.57;;;7.00;;
4986;SDS011;12674;51.500;7.552;2023-12-20T01:25:25;12.70;;;6.23;;
4986;SDS011;12674;51.500;7.552;2023-12-20T01:27:28;12.20;;;6.73;;
4986;SDS011;12674;51.500;7.552;2023-12-20T01:29:30;14.50;;;5.90;;
4986;SDS011;12674;51.500;7.552;2023-12-20T01:31:33;11.13;;;6.03;;
4986;SDS011;12674;51.500;7.552;2023-12-20T01:33:36;15.10;;;6.10;;
4986;SDS011;12674;51.500;7.552;2023-12-20T01:35:40;8.20;;;5.93;;
4986;SDS011;12674;51.500;7.552;2023-12-20T01:37:43;13.20;;;5.57;;
4986;SDS011;12674;51.500;7.552;2023-12-20T01:39:47;18.60;;;6.70;;
4986;SDS011;12674;51.500;7.552;2023-12-20T01:41:50;10.17;;;5.27;;
4986;SDS011;12674;51.500;7.552;2023-12-20T01:43:53;16.73;;;6.37;;
4986;SDS011;12674;51.500;7.552;2023-12-20T01:45:57;19.33;;;5.90;;
4986;SDS011;12674;51.500;7.552;2023-12-20T01:48:00;18.63;;;6.07;;
4986;SDS011;12674;51.500;7.552;2023-12-20T01:50:04;20.33;;;4.97;;
4986;SDS011;12674;51.500;7.552;2023-12-20T01:52:13;12.63;;;5.57;;
4986;SDS011;12674;51.500;7.552;2023-12-20T01:54:16;17.80;;;5.60;;
4986;SDS011;12674;51.500;7.552;2023-12-20T01:56:20;14.03;;;4.33;;
4986;SDS011;12674;51.500;7.552;2023-12-20T01:58:23;22.87;;;6.20;;
4986;SDS011;12674;51.500;7.552;2023-12-20T02:00:26;13.63;;;4.97;;
4986;SDS011;12674;51.500;7.552;2023-12-20T02:02:30;14.27;;;5.63;;
4986;SDS011;12674;51.500;7.552;2023-12-20T02:04:33;19.93;;;7.47;;
4986;SDS011;12674;51.500;7.552;2023-12-20T02:06:36;13.30;;;6.47;;
4986;SDS011;12674;51.500;7.552;2023-12-20T02:08:41;17.57;;;5.53;;
4986;SDS011;12674;51.500;7.552;2023-12-20T02:10:44;8.77;;;4.97;;
4986;SDS011;12674;51.500;7.552;2023-12-20T02:12:48;12.80;;;5.00;;
4986;SDS011;12674;51.500;7.552;2023-12-20T02:14:50;12.87;;;4.77;;
4986;SDS011;12674;51.500;7.552;2023-12-20T02:16:53;13.20;;;5.50;;
4986;SDS011;12674;51.500;7.552;2023-12-20T02:18:56;9.97;;;4.40;;
4986;SDS011;12674;51.500;7.552;2023-12-20T02:20:58;11.67;;;5.80;;
4986;SDS011;12674;51.500;7.552;2023-12-20T02:23:02;15.43;;;4.97;;
4986;SDS011;12674;51.500;7.552;2023-12-20T02:25:06;21.80;;;5.30;;
4986;SDS011;12674;51.500;7.552;2023-12-20T02:27:08;15.60;;;4.80;;
4986;SDS011;12674;51.500;7.552;2023-12-20T02:29:11;18.17;;;4.43;;
4986;SDS011;12674;51.500;7.552;2023-12-20T02:31:14;18.90;;;4.90;;
4986;SDS011;12674;51.500;7.552;2023-12-20T02:33:17;9.30;;;4.10;;
4986;SDS011;12674;51.500;7.552;2023-12-20T02:35:20;11.80;;;5.20;;
4986;SDS011;12674;51.500;7.552;2023-12-20T02:37:24;18.10;;;4.90;;
4986;SDS011;12674;51.500;7.552;2023-12-20T02:39:28;11.93;;;4.90;;
4986;SDS011;12674;51.500;7.552;2023-12-20T02:41:31;19.87;;;5.10;;
4986;SDS011;12674;51.500;7.552;2023-12-20T02:43:33;15.70;;;4.70;;
4986;SDS011;12674;51.500;7.552;2023-12-20T02:45:36;16.83;;;5.10;;
4986;SDS011;12674;51.500;7.552;2023-12-20T02:47:39;16.67;;;5.17;;
4986;SDS011;12674;51.500;7.552;2023-12-20T02:49:41;13.80;;;4.60;;
4986;SDS011;12674;51.500;7.552;2023-12-20T02:51:44;13.23;;;4.97;;
4986;SDS011;12674;51.500;7.552;2023-12-20T02:53:48;15.20;;;4.97;;
4986;SDS011;12674;51.500;7.552;2023-12-20T02:55:59;12.23;;;4.60;;
4986;SDS011;12674;51.500;7.552;2023-12-20T02:58:02;28.40;;;5.67;;
4986;SDS011;12674;51.500;7.552;2023-12-20T03:00:06;15.67;;;4.50;;
4986;SDS011;12674;51.500;7.552;2023-12-20T03:02:10;31.90;;;5.37;;
4986;SDS011;12674;51.500;7.552;2023-12-20T03:04:13;19.70;;;4.40;;
4986;SDS011;12674;51.500;7.552;2023-12-20T03:06:16;27.07;;;5.10;;
4986;SDS011;12674;51.500;7.552;2023-12-20T03:08:20;13.10;;;4.57;;
4986;SDS011;12674;51.500;7.552;2023-12-20T03:10:23;10.73;;;4.60;;
4986;SDS011;12674;51.500;7.552;2023-12-20T03:12:29;11.43;;;4.67;;
4986;SDS011;12674;51.500;7.552;2023-12-20T03:14:31;15.93;;;4.50;;
4986;SDS011;12674;51.500;7.552;2023-12-20T03:16:34;16.33;;;4.60;;
4986;SDS011;12674;51.500;7.552;2023-12-20T03:18:37;22.07;;;5.00;;
4986;SDS011;12674;51.500;7.552;2023-12-20T03:20:39;15.30;;;4.63;;
4986;SDS011;12674;51.500;7.552;2023-12-20T03:22:43;14.17;;;4.80;;
4986;SDS011;12674;51.500;7.552;2023-12-20T03:24:46;21.43;;;5.13;;
4986;SDS011;12674;51.500;7.552;2023-12-20T03:26:48;12.30;;;4.70;;
4986;SDS011;12674;51.500;7.552;2023-12-20T03:28:52;20.83;;;5.53;;
4986;SDS011;12674;51.500;7.552;2023-12-20T03:30:54;18.83;;;5.20;;
4986;SDS011;12674;51.500;7.552;2023-12-20T03:32:59;16.33;;;5.60;;
4986;SDS011;12674;51.500;7.552;2023-12-20T03:35:02;12.53;;;4.63;;
4986;SDS011;12674;51.500;7.552;2023-12-20T03:37:08;15.80;;;5.37;;
4986;SDS011;12674;51.500;7.552;2023-12-20T03:39:11;17.27;;;4.97;;
4986;SDS011;12674;51.500;7.552;2023-12-20T03:41:14;17.20;;;5.47;;
4986;SDS011;12674;51.500;7.552;2023-12-20T03:43:17;16.33;;;5.40;;
4986;SDS011;12674;51.500;7.552;2023-12-20T03:45:22;22.73;;;5.87;;
4986;SDS011;12674;51.500;7.552;2023-12-20T03:47:24;15.57;;;5.80;;
4986;SDS011;12674;51.500;7.552;2023-12-20T03:49:27;22.80;;;5.57;;
4986;SDS011;12674;51.500;7.552;2023-12-20T03:51:30;13.50;;;5.90;;
4986;SDS011;12674;51.500;7.552;2023-12-20T03:53:33;14.27;;;4.57;;
4986;SDS011;12674;51.500;7.552;2023-12-20T03:55:36;18.73;;;4.97;;
4986;SDS011;12674;51.500;7.552;2023-12-20T03:57:39;21.50;;;5.53;;
4986;SDS011;12674;51.500;7.552;2023-12-20T03:59:42;13.43;;;5.27;;
4986;SDS011;12674;51.500;7.552;2023-12-20T04:01:47;12.33;;;5.20;;
4986;SDS011;12674;51.500;7.552;2023-12-20T04:03:50;32.93;;;5.90;;
4986;SDS011;12674;51.500;7.552;2023-12-20T04:05:52;24.40;;;5.50;;
4986;SDS011;12674;51.500;7.552;2023-12-20T04:07:55;15.60;;;6.33;;
4986;SDS011;12674;51.500;7.552;2023-12-20T04:09:58;18.53;;;5.80;;
4986;SDS011;12674;51.500;7.552;2023-12-20T04:12:04;18.23;;;6.07;;
4986;SDS011;12674;51.500;7.552;2023-12-20T04:14:07;21.40;;;7.03;;
4986;SDS011;12674;51.500;7.552;2023-12-20T04:16:11;15.17;;;6.23;;
4986;SDS011;12674;51.500;7.552;2023-12-20T04:18:16;28.53;;;6.70;;
4986;SDS011;12674;51.500;7.552;2023-12-20T04:20:19;27.70;;;7.30;;
4986;SDS011;12674;51.500;7.552;2023-12-20T04:22:22;17.30;;;6.47;;
4986;SDS011;12674;51.500;7.552;2023-12-20T04:24:25;25.00;;;6.33;;
4986;SDS011;12674;51.500;7.552;2023-12-20T04:26:28;21.20;;;5.83;;
4986;SDS011;12674;51.500;7.552;2023-12-20T04:28:31;16.97;;;6.00;;
4986;SDS011;12674;51.500;7.552;2023-12-20T04:30:34;14.87;;;5.87;;
4986;SDS011;12674;51.500;7.552;2023-12-20T04:32:37;21.40;;;5.80;;
4986;SDS011;12674;51.500;7.552;2023-12-20T04:34:42;17.93;;;6.20;;
4986;SDS011;12674;51.500;7.552;2023-12-20T04:36:45;19.17;;;5.40;;
4986;SDS011;12674;51.500;7.552;2023-12-20T04:38:48;27.60;;;6.40;;
4986;SDS011;12674;51.500;7.552;2023-12-20T04:40:51;21.57;;;6.93;;
4986;SDS011;12674;51.500;7.552;2023-12-20T04:42:55;18.60;;;5.70;;
4986;SDS011;12674;51.500;7.552;2023-12-20T04:44:59;14.37;;;4.93;;
4986;SDS011;12674;51.500;7.552;2023-12-20T04:47:01;29.97;;;6.77;;
4986;SDS011;12674;51.500;7.552;2023-12-20T04:49:04;25.80;;;6.33;;
4986;SDS011;12674;51.500;7.552;2023-12-20T04:51:10;27.87;;;6.67;;
4986;SDS011;12674;51.500;7.552;2023-12-20T04:53:13;19.23;;;5.37;;
4986;SDS011;12674;51.500;7.552;2023-12-20T04:55:16;22.67;;;6.80;;
4986;SDS011;12674;51.500;7.552;2023-12-20T04:57:21;18.07;;;5.47;;
4986;SDS011;12674;51.500;7.552;2023-12-20T04:59:23;19.90;;;6.50;;
4986;SDS011;12674;51.500;7.552;2023-12-20T05:01:26;24.23;;;6.97;;
4986;SDS011;12674;51.500;7.552;2023-12-20T05:03:29;14.23;;;5.83;;
4986;SDS011;12674;51.500;7.552;2023-12-20T05:05:33;15.87;;;6.10;;
4986;SDS011;12674;51.500;7.552;2023-12-20T05:07:37;20.30;;;7.03;;
4986;SDS011;12674;51.500;7.552;2023-12-20T05:09:40;26.30;;;7.07;;
4986;SDS011;12674;51.500;7.552;2023-12-20T05:11:44;23.60;;;5.83;;
4986;SDS011;12674;51.500;7.552;2023-12-20T05:13:46;19.63;;;6.83;;
4986;SDS011;12674;51.500;7.552;2023-12-20T05:15:51;30.07;;;7.50;;
4986;SDS011;12674;51.500;7.552;2023-12-20T05:17:54;23.67;;;6.77;;
4986;SDS011;12674;51.500;7.552;2023-12-20T05:19:57;20.10;;;6.10;;
4986;SDS011;12674;51.500;7.552;2023-12-20T05:22:10;26.20;;;8.10;;
4986;SDS011;12674;51.500;7.552;2023-12-20T05:24:15;17.33;;;7.07;;
4986;SDS011;12674;51.500;7.552;2023-12-20T05:26:18;23.87;;;7.73;;
4986;SDS011;12674;51.500;7.552;2023-12-20T05:28:21;23.60;;;7.43;;
4986;SDS011;12674;51.500;7.552;2023-12-20T05:30:24;20.47;;;6.67;;
4986;SDS011;12674;51.500;7.552;2023-12-20T05:32:28;19.53;;;6.93;;
4986;SDS011;12674;51.500;7.552;2023-12-20T05:34:31;30.57;;;7.57;;
4986;SDS011;12674;51.500;7.552;2023-12-20T05:36:41;23.87;;;6.80;;
4986;SDS011;12674;51.500;7.552;2023-12-20T05:38:44;19.07;;;6.47;;
4986;SDS011;12674;51.500;7.552;2023-12-20T05:40:49;28.73;;;7.10;;
4986;SDS011;12674;51.500;7.552;2023-12-20T05:42:52;24.87;;;7.50;;
4986;SDS011;12674;51.500;7.552;2023-12-20T05:44:55;33.13;;;6.77;;
4986;SDS011;12674;51.500;7.552;2023-12-20T05:47:04;21.10;;;6.73;;
4986;SDS011;12674;51.500;7.552;2023-12-20T05:49:07;22.57;;;6.97;;
4986;SDS011;12674;51.500;7.552;2023-12-20T05:51:16;16.93;;;5.80;;
4986;SDS011;12674;51.500;7.552;2023-12-20T05:53:21;18.17;;;6.30;;
4986;SDS011;12674;51.500;7.552;2023-12-20T05:55:24;24.77;;;8.03;;
4986;SDS011;12674;51.500;7.552;2023-12-20T05:57:29;20.73;;;6.40;;
4986;SDS011;12674;51.500;7.552;2023-12-20T05:59:32;21.57;;;7.27;;
4986;SDS011;12674;51.500;7.552;2023-12-20T06:01:41;25.33;;;7.27;;
4986;SDS011;12674;51.500;7.552;2023-12-20T06:03:44;15.47;;;5.87;;
4986;SDS011;12674;51.500;7.552;2023-12-20T06:05:47;25.33;;;6.20;;
4986;SDS011;12674;51.500;7.552;2023-12-20T06:07:51;25.00;;;6.67;;
4986;SDS011;12674;51.500;7.552;2023-12-20T06:09:54;18.43;;;5.77;;
4986;SDS011;12674;51.500;7.552;2023-12-20T06:11:57;23.03;;;7.57;;
4986;SDS011;12674;51.500;7.552;2023-12-20T06:14:04;31.77;;;7.17;;
4986;SDS011;12674;51.500;7.552;2023-12-20T06:16:07;26.60;;;7.23;;
4986;SDS011;12674;51.500;7.552;2023-12-20T06:18:09;14.90;;;6.60;;
4986;SDS011;12674;51.500;7.552;2023-12-20T06:20:12;32.63;;;7.07;;
4986;SDS011;12674;51.500;7.552;2023-12-20T06:22:16;19.13;;;6.10;;
4986;SDS011;12674;51.500;7.552;2023-12-20T06:24:19;31.47;;;7.07;;
4986;SDS011;12674;51.500;7.552;2023-12-20T06:26:23;18.20;;;6.47;;
4986;SDS011;12674;51.500;7.552;2023-12-20T06:28:25;23.53;;;7.47;;
4986;SDS011;12674;51.500;7.552;2023-12-20T06:30:30;17.03;;;7.50;;
4986;SDS011;12674;51.500;7.552;2023-12-20T06:32:34;33.13;;;7.57;;
4986;SDS011;12674;51.500;7.552;2023-12-20T06:34:37;34.70;;;8.23;;
4986;SDS011;12674;51.500;7.552;2023-12-20T06:36:40;29.57;;;9.20;;
4986;SDS011;12674;51.500;7.552;2023-12-20T06:38:44;27.43;;;7.90;;
4986;SDS011;12674;51.500;7.552;2023-12-20T06:40:51;28.70;;;7.90;;
4986;SDS011;12674;51.500;7.552;2023-12-20T06:42:54;21.23;;;7.20;;
4986;SDS011;12674;51.500;7.552;2023-12-20T06:45:09;38.83;;;8.07;;
4986;SDS011;12674;51.500;7.552;2023-12-20T06:47:15;36.23;;;8.60;;
4986;SDS011;12674;51.500;7.552;2023-12-20T06:49:21;48.13;;;10.40;;
4986;SDS011;12674;51.500;7.552;2023-12-20T06:51:25;24.13;;;7.90;;
4986;SDS011;12674;51.500;7.552;2023-12-20T06:53:28;27.67;;;7.97;;
4986;SDS011;12674;51.500;7.552;2023-12-20T06:55:31;26.30;;;8.07;;
4986;SDS011;12674;51.500;7.552;2023-12-20T06:57:34;28.60;;;7.07;;
4986;SDS011;12674;51.500;7.552;2023-12-20T06:59:38;24.87;;;7.07;;
4986;SDS011;12674;51.500;7.552;2023-12-20T07:01:42;28.40;;;6.80;;
4986;SDS011;12674;51.500;7.552;2023-12-20T07:03:46;18.13;;;6.77;;
4986;SDS011;12674;51.500;7.552;2023-12-20T07:05:49;19.90;;;6.53;;
4986;SDS011;12674;51.500;7.552;2023-12-20T07:07:52;28.30;;;7.23;;
4986;SDS011;12674;51.500;7.552;2023-12-20T07:09:56;23.97;;;7.13;;
4986;SDS011;12674;51.500;7.552;2023-12-20T07:11:59;22.33;;;6.87;;
4986;SDS011;12674;51.500;7.552;2023-12-20T07:14:02;21.70;;;7.83;;
4986;SDS011;12674;51.500;7.552;2023-12-20T07:16:05;17.97;;;6.37;;
4986;SDS011;12674;51.500;7.552;2023-12-20T07:18:07;22.57;;;7.07;;
4986;SDS011;12674;51.500;7.552;2023-12-20T07:20:12;25.40;;;6.97;;
4986;SDS011;12674;51.500;7.552;2023-12-20T07:22:23;26.23;;;6.53;;
4986;SDS011;12674;51.500;7.552;2023-12-20T07:24:26;24.63;;;6.93;;
4986;SDS011;12674;51.500;7.552;2023-12-20T07:26:29;26.57;;;6.90;;
4986;SDS011;12674;51.500;7.552;2023-12-20T07:28:32;22.00;;;6.97;;
4986;SDS011;12674;51.500;7.552;2023-12-20T07:30:35;32.30;;;6.83;;
4986;SDS011;12674;51.500;7.552;2023-12-20T07:32:38;20.40;;;6.23;;
4986;SDS011;12674;51.500;7.552;2023-12-20T07:34:41;29.40;;;6.97;;
4986;SDS011;12674;51.500;7.552;2023-12-20T07:36:46;17.50;;;5.57;;
4986;SDS011;12674;51.500;7.552;2023-12-20T07:38:49;24.20;;;7.37;;
4986;SDS011;12674;51.500;7.552;2023-12-20T07:40:52;23.30;;;6.20;;
4986;SDS011;12674;51.500;7.552;2023-12-20T07:42:55;25.30;;;6.00;;
4986;SDS011;12674;51.500;7.552;2023-12-20T07:44:57;25.13;;;5.20;;
4986;SDS011;12674;51.500;7.552;2023-12-20T07:47:00;17.73;;;5.63;;
4986;SDS011;12674;51.500;7.552;2023-12-20T07:49:03;32.63;;;7.30;;
4986;SDS011;12674;51.500;7.552;2023-12-20T07:51:07;17.87;;;4.83;;
4986;SDS011;12674;51.500;7.552;2023-12-20T07:53:13;20.37;;;6.03;;
4986;SDS011;12674;51.500;7.552;2023-12-20T07:55:16;19.63;;;6.40;;
4986;SDS011;12674;51.500;7.552;2023-12-20T07:57:18;27.90;;;5.87;;
4986;SDS011;12674;51.500;7.552;2023-12-20T07:59:21;25.47;;;6.20;;
4986;SDS011;12674;51.500;7.552;2023-12-20T08:01:33;20.57;;;5.90;;
4986;SDS011;12674;51.500;7.552;2023-12-20T08:03:36;18.77;;;5.33;;
4986;SDS011;12674;51.500;7.552;2023-12-20T08:05:39;25.50;;;5.90;;
4986;SDS011;12674;51.500;7.552;2023-12-20T08:07:42;27.70;;;5.63;;
4986;SDS011;12674;51.500;7.552;2023-12-20T08:09:51;23.53;;;5.83;;
4986;SDS011;12674;51.500;7.552;2023-12-20T08:11:56;17.90;;;5.00;;
4986;SDS011;12674;51.500;7.552;2023-12-20T08:14:00;30.27;;;6.50;;
4986;SDS011;12674;51.500;7.552;2023-12-20T08:16:03;15.30;;;5.37;;
4986;SDS011;12674;51.500;7.552;2023-12-20T08:18:07;17.10;;;5.30;;
4986;SDS011;12674;51.500;7.552;2023-12-20T08:20:10;17.23;;;5.37;;
4986;SDS011;12674;51.500;7.552;2023-12-20T08:22:20;20.37;;;5.80;;
4986;SDS011;12674;51.500;7.552;2023-12-20T08:24:23;25.83;;;5.40;;
4986;SDS011;12674;51.500;7.552;2023-12-20T08:26:27;23.87;;;5.87;;
4986;SDS011;12674;51.500;7.552;2023-12-20T08:28:30;23.83;;;6.27;;
4986;SDS011;12674;51.500;7.552;2023-12-20T08:30:34;19.63;;;5.13;;
4986;SDS011;12674;51.500;7.552;2023-12-20T08:32:37;19.80;;;5.40;;
4986;SDS011;12674;51.500;7.552;2023-12-20T08:34:47;23.83;;;5.40;;
4986;SDS011;12674;51.500;7.552;2023-12-20T08:36:51;28.00;;;5.80;;
4986;SDS011;12674;51.500;7.552;2023-12-20T08:38:54;32.67;;;6.10;;
4986;SDS011;12674;51.500;7.552;2023-12-20T08:40:57;21.50;;;4.83;;
4986;SDS011;12674;51.500;7.552;2023-12-20T08:43:02;14.73;;;4.83;;
4986;SDS011;12674;51.500;7.552;2023-12-20T08:45:07;28.23;;;5.77;;
4986;SDS011;12674;51.500;7.552;2023-12-20T08:47:11;25.10;;;5.23;;
4986;SDS011;12674;51.500;7.552;2023-12-20T08:49:17;27.43;;;6.37;;
4986;SDS011;12674;51.500;7.552;2023-12-20T08:51:21;22.10;;;8.10;;
4986;SDS011;12674;51.500;7.552;2023-12-20T08:53:26;30.90;;;5.53;;
4986;SDS011;12674;51.500;7.552;2023-12-20T08:55:29;27.23;;;6.43;;
4986;SDS011;12674;51.500;7.552;2023-12-20T08:57:34;18.07;;;5.27;;
4986;SDS011;12674;51.500;7.552;2023-12-20T08:59:58;20.23;;;5.30;;
4986;SDS011;12674;51.500;7.552;2023-12-20T09:02:02;19.23;;;5.10;;
4986;SDS011;12674;51.500;7.552;2023-12-20T09:04:06;20.57;;;5.50;;
4986;SDS011;12674;51.500;7.552;2023-12-20T09:06:10;26.90;;;5.80;;
4986;SDS011;12674;51.500;7.552;2023-12-20T09:10:40;19.00;;;4.60;;
4986;SDS011;12674;51.500;7.552;2023-12-20T09:12:43;25.00;;;6.43;;
4986;SDS011;12674;51.500;7.552;2023-12-20T09:14:46;19.60;;;5.63;;
4986;SDS011;12674;51.500;7.552;2023-12-20T09:16:51;17.83;;;4.50;;
4986;SDS011;12674;51.500;7.552;2023-12-20T09:18:57;36.77;;;7.00;;
4986;SDS011;12674;51.500;7.552;2023-12-20T09:24:35;17.00;;;5.37;;
4986;SDS011;12674;51.500;7.552;2023-12-20T09:26:38;20.77;;;5.60;;
4986;SDS011;12674;51.500;7.552;2023-12-20T09:28:41;20.53;;;4.80;;
4986;SDS011;12674;51.500;7.552;2023-12-20T09:30:44;36.97;;;5.60;;
4986;SDS011;12674;51.500;7.552;2023-12-20T09:32:49;28.03;;;6.10;;
4986;SDS011;12674;51.500;7.552;2023-12-20T09:34:52;16.60;;;4.97;;
4986;SDS011;12674;51.500;7.552;2023-12-20T09:36:55;28.20;;;5.27;;
4986;SDS011;12674;51.500;7.552;2023-12-20T09:38:59;28.60;;;5.80;;
4986;SDS011;12674;51.500;7.552;2023-12-20T09:41:02;20.77;;;4.97;;
4986;SDS011;12674;51.500;7.552;2023-12-20T09:43:13;23.40;;;4.80;;
4986;SDS011;12674;51.500;7.552;2023-12-20T09:45:20;19.67;;;4.50;;
4986;SDS011;12674;51.500;7.552;2023-12-20T09:47:24;23.20;;;5.23;;
4986;SDS011;12674;51.500;7.552;2023-12-20T09:49:28;23.90;;;4.63;;
4986;SDS011;12674;51.500;7.552;2023-12-20T09:51:32;23.00;;;6.33;;
4986;SDS011;12674;51.500;7.552;2023-12-20T09:53:36;20.00;;;4.93;;
4986;SDS011;12674;51.500;7.552;2023-12-20T09:55:39;16.97;;;5.07;;
4986;SDS011;12674;51.500;7.552;2023-12-20T09:57:44;16.07;;;4.17;;
4986;SDS011;12674;51.500;7.552;2023-12-20T09:59:47;21.07;;;6.37;;
4986;SDS011;12674;51.500;7.552;2023-12-20T10:01:49;19.77;;;4.00;;
4986;SDS011;12674;51.500;7.552;2023-12-20T10:03:56;22.87;;;5.70;;
4986;SDS011;12674;51.500;7.552;2023-12-20T10:06:02;19.30;;;4.30;;
4986;SDS011;12674;51.500;7.552;2023-12-20T10:08:05;16.93;;;4.50;;
4986;SDS011;12674;51.500;7.552;2023-12-20T10:10:09;18.27;;;4.90;;
4986;SDS011;12674;51.500;7.552;2023-12-20T10:12:13;20.73;;;4.80;;
4986;SDS011;12674;51.500;7.552;2023-12-20T10:14:16;19.47;;;4.67;;
4986;SDS011;12674;51.500;7.552;2023-12-20T10:16:23;24.03;;;5.37;;
4986;SDS011;12674;51.500;7.552;2023-12-20T10:18:28;26.90;;;5.60;;
4986;SDS011;12674;51.500;7.552;2023-12-20T10:20:40;22.40;;;4.80;;
4986;SDS011;12674;51.500;7.552;2023-12-20T10:22:45;20.43;;;3.90;;
4986;SDS011;12674;51.500;7.552;2023-12-20T10:27:17;14.30;;;3.90;;
4986;SDS011;12674;51.500;7.552;2023-12-20T10:29:33;20.70;;;4.20;;
4986;SDS011;12674;51.500;7.552;2023-12-20T10:31:39;21.70;;;4.83;;
4986;SDS011;12674;51.500;7.552;2023-12-20T10:33:44;17.70;;;4.67;;
4986;SDS011;12674;51.500;7.552;2023-12-20T10:35:47;24.00;;;4.73;;
4986;SDS011;12674;51.500;7.552;2023-12-20T10:37:52;17.53;;;4.50;;
4986;SDS011;12674;51.500;7.552;2023-12-20T10:39:58;19.73;;;4.47;;
4986;SDS011;12674;51.500;7.552;2023-12-20T10:42:02;19.87;;;4.17;;
4986;SDS011;12674;51.500;7.552;2023-12-20T10:44:09;19.70;;;4.93;;
4986;SDS011;12674;51.500;7.552;2023-12-20T10:46:13;26.47;;;4.53;;
4986;SDS011;12674;51.500;7.552;2023-12-20T10:48:16;14.00;;;3.70;;
4986;SDS011;12674;51.500;7.552;2023-12-20T10:50:20;24.30;;;4.47;;
4986;SDS011;12674;51.500;7.552;2023-12-20T10:52:23;18.23;;;5.60;;
4986;SDS011;12674;51.500;7.552;2023-12-20T10:54:26;14.53;;;4.40;;
4986;SDS011;12674;51.500;7.552;2023-12-20T10:56:37;16.53;;;4.07;;
4986;SDS011;12674;51.500;7.552;2023-12-20T10:58:41;20.00;;;4.93;;
4986;SDS011;12674;51.500;7.552;2023-12-20T11:00:53;22.10;;;4.43;;
4986;SDS011;12674;51.500;7.552;2023-12-20T11:03:03;15.73;;;4.63;;
4986;SDS011;12674;51.500;7.552;2023-12-20T11:05:10;15.13;;;4.33;;
4986;SDS011;12674;51.500;7.552;2023-12-20T11:07:28;29.90;;;5.30;;
4986;SDS011;12674;51.500;7.552;2023-12-20T11:09:45;27.23;;;5.70;;
4986;SDS011;12674;51.500;7.552;2023-12-20T11:11:56;22.73;;;5.47;;
4986;SDS011;12674;51.500;7.552;2023-12-20T11:14:03;22.77;;;4.60;;
4986;SDS011;12674;51.500;7.552;2023-12-20T11:16:10;25.17;;;5.40;;
4986;SDS011;12674;51.500;7.552;2023-12-20T11:18:13;25.00;;;4.80;;
4986;SDS011;12674;51.500;7.552;2023-12-20T11:20:17;21.27;;;5.97;;
4986;SDS011;12674;51.500;7.552;2023-12-20T11:22:20;27.53;;;5.10;;
4986;SDS011;12674;51.500;7.552;2023-12-20T11:24:23;18.30;;;4.80;;
4986;SDS011;12674;51.500;7.552;2023-12-20T11:26:30;18.93;;;4.40;;
4986;SDS011;12674;51.500;7.552;2023-12-20T11:28:33;17.83;;;4.60;;
4986;SDS011;12674;51.500;7.552;2023-12-20T11:30:42;16.83;;;4.53;;
4986;SDS011;12674;51.500;7.552;2023-12-20T11:32:49;22.83;;;5.17;;
4986;SDS011;12674;51.500;7.552;2023-12-20T11:34:53;15.83;;;4.20;;
4986;SDS011;12674;51.500;7.552;2023-12-20T11:36:58;26.63;;;4.63;;
4986;SDS011;12674;51.500;7.552;2023-12-20T11:39:18;19.37;;;4.80;;
4986;SDS011;12674;51.500;7.552;2023-12-20T11:41:25;21.10;;;4.97;;
4986;SDS011;12674;51.500;7.552;2023-12-20T11:43:34;20.97;;;4.40;;
4986;SDS011;12674;51.500;7.552;2023-12-20T11:45:38;19.80;;;5.20;;
4986;SDS011;12674;51.500;7.552;2023-12-20T11:47:53;20.47;;;5.43;;
4986;SDS011;12674;51.500;7.552;2023-12-20T11:49:56;15.63;;;3.90;;
4986;SDS011;12674;51.500;7.552;2023-12-20T11:51:59;18.20;;;5.27;;
4986;SDS011;12674;51.500;7.552;2023-12-20T11:54:02;23.00;;;5.07;;
4986;SDS011;12674;51.500;7.552;2023-12-20T11:56:13;22.07;;;4.53;;
4986;SDS011;12674;51.500;7.552;2023-12-20T11:58:20;21.47;;;5.20;;
4986;SDS011;12674;51.500;7.552;2023-12-20T12:00:28;20.50;;;5.60;;
4986;SDS011;12674;51.500;7.552;2023-12-20T12:02:40;14.80;;;3.70;;
4986;SDS011;12674;51.500;7.552;2023-12-20T12:04:50;22.37;;;5.37;;
4986;SDS011;12674;51.500;7.552;2023-12-20T12:06:54;16.90;;;4.13;;
4986;SDS011;12674;51.500;7.552;2023-12-20T12:08:57;20.63;;;4.80;;
4986;SDS011;12674;51.500;7.552;2023-12-20T12:11:12;22.17;;;5.50;;
4986;SDS011;12674;51.500;7.552;2023-12-20T12:13:17;16.33;;;5.00;;
4986;SDS011;12674;51.500;7.552;2023-12-20T12:15:28;19.47;;;5.73;;
4986;SDS011;12674;51.500;7.552;2023-12-20T12:17:39;18.40;;;4.50;;
4986;SDS011;12674;51.500;7.552;2023-12-20T12:20:20;18.10;;;5.63;;
4986;SDS011;12674;51.500;7.552;2023-12-20T12:25:16;20.17;;;5.17;;
4986;SDS011;12674;51.500;7.552;2023-12-20T12:27:51;16.67;;;5.43;;
4986;SDS011;12674;51.500;7.552;2023-12-20T12:30:00;20.00;;;5.50;;
4986;SDS011;12674;51.500;7.552;2023-12-20T12:32:05;31.90;;;6.20;;
4986;SDS011;12674;51.500;7.552;2023-12-20T12:34:23;22.77;;;5.73;;
4986;SDS011;12674;51.500;7.552;2023-12-20T12:36:34;24.43;;;6.67;;
4986;SDS011;12674;51.500;7.552;2023-12-20T12:38:37;20.40;;;6.20;;
4986;SDS011;12674;51.500;7.552;2023-12-20T12:40:40;35.50;;;6.00;;